createdAt,value
2017-10-20T00:00:49.055Z,100939.30
2017-10-20T00:03:16.624Z,100937.66
2017-10-20T00:05:44.180Z,100935.14
2017-10-20T00:08:11.748Z,100935.47
2017-10-20T00:10:39.290Z,100933.89
2017-10-20T00:13:06.823Z,100929.83
2017-10-20T00:15:34.360Z,100931.20
2017-10-20T00:18:01.893Z,100924.19
2017-10-20T00:20:29.544Z,100936.88
2017-10-20T00:22:57.929Z,100931.08
2017-10-20T00:25:25.780Z,100935.16
2017-10-20T00:27:53.360Z,100930.92
2017-10-20T00:30:20.901Z,100930.98
2017-10-20T00:32:48.476Z,100935.69
2017-10-20T00:35:16.136Z,100936.03
2017-10-20T00:37:43.669Z,100928.95
2017-10-20T00:40:11.211Z,100928.80
2017-10-20T00:42:38.752Z,100929.38
2017-10-20T00:45:06.284Z,100928.94
2017-10-20T00:47:33.827Z,100924.05
2017-10-20T00:50:01.371Z,100924.99
2017-10-20T00:52:28.958Z,100931.33
2017-10-20T00:54:56.522Z,100929.36
2017-10-20T00:57:24.060Z,100929.38
2017-10-20T00:59:51.599Z,100926.22
2017-10-20T01:02:19.137Z,100919.73
2017-10-20T01:04:46.773Z,100924.55
2017-10-20T01:07:14.306Z,100928.72
2017-10-20T01:09:41.845Z,100930.83
2017-10-20T01:12:09.389Z,100925.81
2017-10-20T01:14:36.933Z,100925.13
2017-10-20T01:17:04.472Z,100924.29
2017-10-20T01:19:32.375Z,100921.95
2017-10-20T01:21:59.926Z,100922.05
2017-10-20T01:24:27.455Z,100919.42
2017-10-20T01:26:55.026Z,100915.13
2017-10-20T01:29:22.734Z,100914.49
2017-10-20T01:31:50.267Z,100916.44
2017-10-20T01:34:17.893Z,100919.86
2017-10-20T01:36:45.476Z,100922.30
2017-10-20T01:39:13.020Z,100923.94
2017-10-20T01:41:41.335Z,100915.81
2017-10-20T01:44:10.056Z,100918.02
2017-10-20T01:46:37.585Z,100910.58
2017-10-20T01:49:05.198Z,100912.84
2017-10-20T01:51:32.745Z,100915.85
2017-10-20T01:54:00.303Z,100911.59
2017-10-20T01:56:27.836Z,100909.50
2017-10-20T01:58:55.368Z,100914.19
2017-10-20T02:01:22.948Z,100912.88
2017-10-20T02:03:50.488Z,100916.23
2017-10-20T02:06:18.109Z,100921.93
2017-10-20T02:08:45.644Z,100916.48
2017-10-20T02:11:13.239Z,100910.75
2017-10-20T02:13:41.461Z,100910.02
2017-10-20T02:16:09.088Z,100906.45
2017-10-20T02:18:37.464Z,100906.60
2017-10-20T02:21:05.813Z,100908.22
2017-10-20T02:23:34.112Z,100908.34
2017-10-20T02:26:02.453Z,100907.19
2017-10-20T02:28:30.022Z,100907.30
2017-10-20T02:30:57.565Z,100906.91
2017-10-20T02:33:25.186Z,100916.28
2017-10-20T02:35:52.730Z,100915.75
2017-10-20T02:38:20.309Z,100908.33
2017-10-20T02:40:47.864Z,100914.45
2017-10-20T02:43:15.389Z,100915.17
2017-10-20T02:45:42.924Z,100919.25
2017-10-20T02:48:10.541Z,100917.88
2017-10-20T02:50:38.069Z,100909.46
2017-10-20T02:53:05.601Z,100911.65
2017-10-20T02:55:33.131Z,100911.80
2017-10-20T02:58:00.693Z,100920.44
2017-10-20T03:00:28.246Z,100918.25
2017-10-20T03:02:55.808Z,100905.58
2017-10-20T03:05:23.363Z,100906.54
2017-10-20T03:07:50.896Z,100913.88
2017-10-20T03:10:20.544Z,100909.77
2017-10-20T03:12:48.092Z,100909.34
2017-10-20T03:15:15.620Z,100901.70
2017-10-20T03:17:43.158Z,100905.80
2017-10-20T03:20:10.704Z,100896.97
2017-10-20T03:22:38.238Z,100905.50
2017-10-20T03:25:05.788Z,100907.58
2017-10-20T03:27:33.323Z,100908.31
2017-10-20T03:30:01.014Z,100916.25
2017-10-20T03:32:28.547Z,100914.03
2017-10-20T03:34:56.081Z,100914.80
2017-10-20T03:37:23.611Z,100912.17
2017-10-20T03:39:51.151Z,100903.30
2017-10-20T03:42:18.693Z,100905.36
2017-10-20T03:44:46.233Z,100904.60
2017-10-20T03:47:13.773Z,100907.30
2017-10-20T03:49:41.307Z,100900.72
2017-10-20T03:52:08.852Z,100906.27
2017-10-20T03:54:36.915Z,100909.22
2017-10-20T03:57:04.481Z,100911.70
2017-10-20T03:59:32.016Z,100906.30
2017-10-20T04:02:00.519Z,100907.45
2017-10-20T04:04:28.059Z,100902.27
2017-10-20T04:06:55.648Z,100911.74
2017-10-20T04:09:23.183Z,100907.72
2017-10-20T04:11:50.711Z,100909.52
2017-10-20T04:14:18.251Z,100909.24
2017-10-20T04:16:45.790Z,100917.03
2017-10-20T04:19:13.327Z,100918.69
2017-10-20T04:21:40.912Z,100915.67
2017-10-20T04:24:08.467Z,100917.70
2017-10-20T04:26:36.007Z,100901.50
2017-10-20T04:29:03.538Z,100904.80
2017-10-20T04:31:32.089Z,100908.33
2017-10-20T04:33:59.631Z,100909.91
2017-10-20T04:36:27.168Z,100912.52
2017-10-20T04:38:54.701Z,100908.06
2017-10-20T04:41:22.425Z,100902.72
2017-10-20T04:43:49.991Z,100902.14
2017-10-20T04:46:18.263Z,100897.44
2017-10-20T04:48:45.796Z,100901.30
2017-10-20T04:51:13.347Z,100902.87
2017-10-20T04:53:40.880Z,100896.95
2017-10-20T04:56:08.411Z,100898.88
2017-10-20T04:58:35.953Z,100895.01
2017-10-20T05:01:03.598Z,100895.77
2017-10-20T05:03:31.200Z,100905.83
2017-10-20T05:05:58.760Z,100906.34
2017-10-20T05:08:26.300Z,100901.81
2017-10-20T05:10:53.833Z,100900.44
2017-10-20T05:13:21.409Z,100902.20
2017-10-20T05:15:48.941Z,100908.30
2017-10-20T05:18:16.472Z,100907.50
2017-10-20T05:20:44.001Z,100908.62
2017-10-20T05:23:12.796Z,100905.33
2017-10-20T05:25:40.324Z,100897.73
2017-10-20T05:28:07.858Z,100894.47
2017-10-20T05:30:35.397Z,100903.00
2017-10-20T05:33:02.932Z,100906.92
2017-10-20T05:35:30.472Z,100914.86
2017-10-20T05:37:58.012Z,100916.79
2017-10-20T05:40:25.624Z,100919.48
2017-10-20T05:42:53.167Z,100911.98
2017-10-20T05:45:20.695Z,100910.50
2017-10-20T05:47:48.300Z,100905.66
2017-10-20T05:50:19.227Z,100909.66
2017-10-20T05:52:46.756Z,100911.42
2017-10-20T05:55:14.289Z,100910.30
2017-10-20T05:57:41.824Z,100901.39
2017-10-20T06:00:09.383Z,100897.90
2017-10-20T06:02:37.732Z,100887.05
2017-10-20T06:05:05.266Z,100885.02
2017-10-20T06:07:32.809Z,100887.56
2017-10-20T06:10:00.352Z,100892.09
2017-10-20T06:12:27.883Z,100903.51
2017-10-20T06:14:55.457Z,100898.89
2017-10-20T06:17:35.001Z,100901.47
2017-10-20T06:20:02.540Z,100900.94
2017-10-20T06:22:30.116Z,100895.52
2017-10-20T06:24:57.656Z,100904.46
2017-10-20T06:27:25.189Z,100911.50
2017-10-20T06:29:53.624Z,100910.88
2017-10-20T06:32:21.287Z,100910.54
2017-10-20T06:34:48.913Z,100909.92
2017-10-20T06:37:16.444Z,100915.80
2017-10-20T06:39:44.788Z,100909.53
2017-10-20T06:42:12.313Z,100907.19
2017-10-20T06:44:40.700Z,100905.61
2017-10-20T06:47:08.233Z,100908.22
2017-10-20T06:49:35.772Z,100921.75
2017-10-20T06:52:03.337Z,100922.75
2017-10-20T06:54:30.871Z,100927.42
2017-10-20T06:56:58.400Z,100925.28
2017-10-20T06:59:25.938Z,100930.28
2017-10-20T07:01:53.668Z,100925.16
2017-10-20T07:04:21.309Z,100921.92
2017-10-20T07:06:48.872Z,100919.52
2017-10-20T07:09:16.409Z,100921.20
2017-10-20T07:11:44.196Z,100919.06
2017-10-20T07:14:11.794Z,100915.84
2017-10-20T07:16:39.371Z,100917.15
2017-10-20T07:22:10.898Z,100923.61
2017-10-20T07:24:38.556Z,100931.67
2017-10-20T07:27:06.420Z,100931.23
2017-10-20T07:29:35.813Z,100925.52
2017-10-20T07:32:03.433Z,100927.71
2017-10-20T07:34:31.037Z,100931.05
2017-10-20T07:36:58.573Z,100934.30
2017-10-20T07:39:26.264Z,100942.09
2017-10-20T07:41:53.799Z,100935.24
2017-10-20T07:44:21.337Z,100934.09
2017-10-20T07:46:50.170Z,100931.46
2017-10-20T07:49:18.712Z,100937.34
2017-10-20T07:51:46.288Z,100932.28
2017-10-20T07:54:14.477Z,100936.36
2017-10-20T07:56:42.023Z,100928.45
2017-10-20T07:59:09.607Z,100928.72
2017-10-20T08:01:37.147Z,100928.16
2017-10-20T08:04:04.741Z,100923.47
2017-10-20T08:06:32.286Z,100918.54
2017-10-20T08:08:59.824Z,100912.31
2017-10-20T08:11:28.140Z,100907.36
2017-10-20T08:13:55.812Z,100906.22
2017-10-20T08:16:24.418Z,100916.02
2017-10-20T08:18:52.051Z,100912.85
2017-10-20T08:21:19.593Z,100915.12
2017-10-20T08:23:47.175Z,100932.89
2017-10-20T08:26:14.710Z,100955.66
2017-10-20T08:28:42.260Z,100951.61
2017-10-20T08:31:09.796Z,100952.11
2017-10-20T08:33:37.380Z,100949.76
2017-10-20T08:36:04.972Z,100953.20
2017-10-20T08:38:33.421Z,100953.41
2017-10-20T08:41:02.054Z,100937.30
2017-10-20T08:43:29.588Z,100934.39
2017-10-20T08:45:57.157Z,100944.23
2017-10-20T08:48:24.709Z,100943.44
2017-10-20T08:50:52.285Z,100936.41
2017-10-20T08:53:19.872Z,100935.80
2017-10-20T08:55:47.409Z,100939.03
2017-10-20T08:58:16.008Z,100926.88
2017-10-20T09:00:43.547Z,100929.32
2017-10-20T09:03:11.087Z,100920.88
2017-10-20T09:05:38.633Z,100929.51
2017-10-20T09:08:06.233Z,100926.22
2017-10-20T09:10:34.698Z,100920.28
2017-10-20T09:13:02.237Z,100912.16
2017-10-20T09:15:29.800Z,100917.91
2017-10-20T09:17:57.338Z,100917.50
2017-10-20T09:20:24.887Z,100920.11
2017-10-20T09:22:52.429Z,100911.19
2017-10-20T09:25:20.081Z,100905.58
2017-10-20T09:27:47.623Z,100919.54
2017-10-20T09:30:19.334Z,100925.98
2017-10-20T09:32:46.957Z,100917.84
2017-10-20T09:35:14.593Z,100922.17
2017-10-20T09:37:42.188Z,100927.76
2017-10-20T09:40:10.593Z,100917.91
2017-10-20T09:42:38.224Z,100911.16
2017-10-20T09:45:06.955Z,100915.27
2017-10-20T09:47:34.545Z,100919.14
2017-10-20T09:50:02.137Z,100921.94
2017-10-20T09:52:29.670Z,100924.86
2017-10-20T09:54:57.970Z,100922.50
2017-10-20T09:57:26.330Z,100918.47
2017-10-20T09:59:53.870Z,100917.13
2017-10-20T10:02:21.461Z,100906.92
2017-10-20T10:04:49.016Z,100907.13
2017-10-20T10:07:16.553Z,100906.25
2017-10-20T10:09:44.140Z,100902.38
2017-10-20T10:12:11.682Z,100903.70
2017-10-20T10:14:39.273Z,100900.90
2017-10-20T10:17:06.822Z,100896.91
2017-10-20T10:19:34.388Z,100898.19
2017-10-20T10:22:01.923Z,100897.66
2017-10-20T10:24:30.338Z,100893.71
2017-10-20T10:26:57.909Z,100896.13
2017-10-20T10:29:26.064Z,100892.33
2017-10-20T10:31:54.905Z,100890.45
2017-10-20T10:34:22.518Z,100894.84
2017-10-20T10:36:50.104Z,100898.89
2017-10-20T10:39:17.649Z,100890.05
2017-10-20T10:41:46.083Z,100878.36
2017-10-20T10:44:13.680Z,100880.48
2017-10-20T10:46:42.145Z,100878.42
2017-10-20T10:49:09.719Z,100875.31
2017-10-20T10:51:38.060Z,100877.45
2017-10-20T10:54:05.635Z,100885.10
2017-10-20T10:56:33.901Z,100887.39
2017-10-20T10:59:01.440Z,100882.20
2017-10-20T11:01:29.728Z,100879.98
2017-10-20T11:03:57.280Z,100874.90
2017-10-20T11:06:36.695Z,100883.80
2017-10-20T11:09:16.461Z,100869.76
2017-10-20T11:11:55.965Z,100865.89
2017-10-20T11:14:23.503Z,100863.02
2017-10-20T11:16:51.937Z,100868.66
2017-10-20T11:19:19.468Z,100865.84
2017-10-20T11:21:48.875Z,100859.23
2017-10-20T11:24:16.560Z,100861.42
2017-10-20T11:26:44.096Z,100863.74
2017-10-20T11:29:11.656Z,100870.70
2017-10-20T11:31:40.041Z,100867.55
2017-10-20T11:34:07.609Z,100866.09
2017-10-20T11:36:35.979Z,100873.99
2017-10-20T11:39:03.518Z,100879.50
2017-10-20T11:41:31.931Z,100871.65
2017-10-20T11:43:59.576Z,100876.00
2017-10-20T11:46:27.900Z,100876.39
2017-10-20T11:48:55.517Z,100875.67
2017-10-20T11:51:23.758Z,100872.55
2017-10-20T11:53:51.306Z,100875.31
2017-10-20T11:56:19.377Z,100872.71
2017-10-20T11:58:46.921Z,100876.99
2017-10-20T12:01:14.463Z,100872.84
2017-10-20T12:03:42.007Z,100876.62
2017-10-20T12:06:09.568Z,100872.59
2017-10-20T12:08:37.129Z,100870.11
2017-10-20T12:11:04.664Z,100873.16
2017-10-20T12:13:32.197Z,100860.05
2017-10-20T12:15:59.740Z,100863.19
2017-10-20T12:18:27.281Z,100861.63
2017-10-20T12:20:54.823Z,100859.22
2017-10-20T12:23:22.374Z,100851.41
2017-10-20T12:25:49.964Z,100852.45
2017-10-20T12:28:17.843Z,100857.44
2017-10-20T12:30:46.203Z,100862.58
2017-10-20T12:33:13.758Z,100863.00
2017-10-20T12:35:41.299Z,100858.02
2017-10-20T12:38:08.880Z,100859.82
2017-10-20T12:40:37.257Z,100859.18
2017-10-20T12:43:05.780Z,100857.65
2017-10-20T12:45:33.333Z,100850.16
2017-10-20T12:48:00.868Z,100840.39
2017-10-20T12:50:28.402Z,100850.73
2017-10-20T12:52:55.938Z,100844.94
2017-10-20T12:55:23.536Z,100844.80
2017-10-20T12:57:51.713Z,100839.39
2017-10-20T13:00:20.735Z,100836.11
2017-10-20T13:02:48.276Z,100837.69
2017-10-20T13:05:15.820Z,100834.27
2017-10-20T13:07:43.366Z,100842.30
2017-10-20T13:10:10.902Z,100830.73
2017-10-20T13:12:38.512Z,100837.34
2017-10-20T13:15:06.051Z,100836.20
2017-10-20T13:17:33.665Z,100835.78
2017-10-20T13:20:01.300Z,100839.42
2017-10-20T13:22:28.864Z,100850.05
2017-10-20T13:24:56.440Z,100842.19
2017-10-20T13:27:24.078Z,100839.06
2017-10-20T13:29:51.604Z,100840.39
2017-10-20T13:32:20.269Z,100843.94
2017-10-20T13:34:48.648Z,100842.59
2017-10-20T13:37:17.289Z,100843.39
2017-10-20T13:39:44.853Z,100843.27
2017-10-20T13:42:12.408Z,100842.93
2017-10-20T13:44:39.989Z,100841.92
2017-10-20T13:47:08.423Z,100842.83
2017-10-20T13:49:36.967Z,100842.80
2017-10-20T13:52:05.517Z,100837.28
2017-10-20T13:54:33.828Z,100836.48
2017-10-20T13:57:02.183Z,100831.62
2017-10-20T13:59:30.535Z,100820.92
2017-10-20T14:01:58.811Z,100815.38
2017-10-20T14:04:27.245Z,100819.31
2017-10-20T14:06:55.656Z,100824.44
2017-10-20T14:09:24.108Z,100825.02
2017-10-20T14:11:52.420Z,100816.90
2017-10-20T14:14:19.953Z,100814.73
2017-10-20T14:16:48.392Z,100816.50
2017-10-20T14:19:15.925Z,100811.03
2017-10-20T14:21:44.368Z,100804.66
2017-10-20T14:24:11.942Z,100803.23
2017-10-20T14:26:40.384Z,100808.25
2017-10-20T14:29:08.036Z,100804.13
2017-10-20T14:31:36.360Z,100794.72
2017-10-20T14:34:03.928Z,100788.08
2017-10-20T14:36:31.541Z,100792.88
2017-10-20T14:38:59.801Z,100790.98
2017-10-20T14:41:28.067Z,100785.17
2017-10-20T14:43:55.658Z,100798.88
2017-10-20T14:46:24.036Z,100807.04
2017-10-20T14:48:51.596Z,100801.11
2017-10-20T14:51:20.101Z,100807.03
2017-10-20T14:53:47.636Z,100785.17
2017-10-20T14:56:16.032Z,100781.11
2017-10-20T14:58:43.572Z,100786.19
2017-10-20T15:01:11.984Z,100805.34
2017-10-20T15:03:40.332Z,100798.50
2017-10-20T15:06:08.687Z,100780.86
2017-10-20T15:08:42.064Z,100783.30
2017-10-20T15:11:09.642Z,100804.80
2017-10-20T15:13:38.089Z,100793.59
2017-10-20T15:16:05.631Z,100790.54
2017-10-20T15:18:33.166Z,100787.08
2017-10-20T15:21:02.552Z,100789.83
2017-10-20T15:23:30.780Z,100785.45
2017-10-20T15:25:58.312Z,100789.23
2017-10-20T15:28:25.852Z,100785.14
2017-10-20T15:30:53.444Z,100777.82
2017-10-20T15:33:20.997Z,100770.92
2017-10-20T15:35:49.646Z,100764.70
2017-10-20T15:38:18.140Z,100767.35
2017-10-20T15:40:45.833Z,100757.23
2017-10-20T15:43:13.369Z,100763.56
2017-10-20T15:45:40.900Z,100760.93
2017-10-20T15:48:08.445Z,100767.31
2017-10-20T15:50:36.792Z,100766.05
2017-10-20T15:53:04.326Z,100772.80
2017-10-20T15:55:32.764Z,100768.48
2017-10-20T15:58:00.833Z,100775.29
2017-10-20T16:00:29.300Z,100783.34
2017-10-20T16:02:56.835Z,100791.25
2017-10-20T16:05:24.512Z,100787.81
2017-10-20T16:07:52.949Z,100782.54
2017-10-20T16:10:20.674Z,100780.11
2017-10-20T16:12:48.211Z,100775.17
2017-10-20T16:15:15.746Z,100775.89
2017-10-20T16:17:43.337Z,100773.84
2017-10-20T16:20:10.905Z,100776.15
2017-10-20T16:22:38.480Z,100766.45
2017-10-20T16:25:06.029Z,100772.83
2017-10-20T16:27:33.573Z,100766.51
2017-10-20T16:30:01.722Z,100773.66
2017-10-20T16:32:29.311Z,100798.89
2017-10-20T16:34:56.862Z,100807.50
2017-10-20T16:37:26.015Z,100816.63
2017-10-20T16:39:54.158Z,100820.73
2017-10-20T16:42:22.360Z,100819.55
2017-10-20T16:44:49.893Z,100832.83
2017-10-20T16:47:17.432Z,100838.09
2017-10-20T16:49:44.971Z,100840.17
2017-10-20T16:52:12.533Z,100839.94
2017-10-20T16:54:40.073Z,100838.73
2017-10-20T16:57:07.617Z,100831.56
2017-10-20T16:59:35.240Z,100830.46
2017-10-20T17:02:03.697Z,100826.38
2017-10-20T17:04:32.096Z,100820.39
2017-10-20T17:06:59.628Z,100816.63
2017-10-20T17:09:27.736Z,100813.98
2017-10-20T17:11:55.300Z,100814.40
2017-10-20T17:14:22.848Z,100811.15
2017-10-20T17:16:50.383Z,100813.30
2017-10-20T17:19:17.928Z,100814.00
2017-10-20T17:21:45.516Z,100812.08
2017-10-20T17:24:13.048Z,100816.50
2017-10-20T17:26:40.621Z,100810.02
2017-10-20T17:29:08.160Z,100820.39
2017-10-20T17:31:35.705Z,100819.97
2017-10-20T17:34:03.256Z,100819.64
2017-10-20T17:36:30.795Z,100818.72
2017-10-20T17:38:58.329Z,100815.12
2017-10-20T17:41:25.921Z,100815.12
2017-10-20T17:43:56.151Z,100810.92
2017-10-20T17:46:23.709Z,100812.64
2017-10-20T17:48:53.458Z,100806.61
2017-10-20T17:51:20.996Z,100800.61
2017-10-20T17:53:49.520Z,100801.97
2017-10-20T17:56:19.176Z,100801.23
2017-10-20T17:58:47.499Z,100799.81
2017-10-20T18:01:15.940Z,100808.22
2017-10-20T18:03:46.383Z,100800.31
2017-10-20T18:06:13.950Z,100792.58
2017-10-20T18:08:41.573Z,100789.24
2017-10-20T18:11:09.910Z,100791.47
2017-10-20T18:13:37.517Z,100798.81
2017-10-20T18:16:05.269Z,100799.34
2017-10-20T18:18:32.827Z,100808.90
2017-10-20T18:21:00.371Z,100800.68
2017-10-20T18:23:27.915Z,100796.36
2017-10-20T18:25:55.522Z,100790.14
2017-10-20T18:28:23.060Z,100794.09
2017-10-20T18:30:51.397Z,100793.69
2017-10-20T18:33:18.945Z,100789.45
2017-10-20T18:35:46.485Z,100793.05
2017-10-20T18:38:15.229Z,100796.09
2017-10-20T18:40:42.769Z,100798.70
2017-10-20T18:43:10.397Z,100798.92
2017-10-20T18:45:37.940Z,100796.17
2017-10-20T18:48:06.305Z,100793.45
2017-10-20T18:50:34.629Z,100791.11
2017-10-20T18:53:02.167Z,100791.10
2017-10-20T18:55:29.704Z,100779.61
2017-10-20T18:57:57.248Z,100780.47
2017-10-20T19:00:24.825Z,100776.00
2017-10-20T19:02:53.180Z,100780.10
2017-10-20T19:05:20.711Z,100785.96
2017-10-20T19:07:48.248Z,100785.42
2017-10-20T19:10:16.241Z,100798.40
2017-10-20T19:12:44.804Z,100790.00
2017-10-20T19:15:12.380Z,100805.67
2017-10-20T19:17:39.921Z,100821.25
2017-10-20T19:20:07.460Z,100845.44
2017-10-20T19:22:35.049Z,100855.27
2017-10-20T19:25:02.617Z,100867.65
2017-10-20T19:27:30.188Z,100868.32
2017-10-20T19:29:57.731Z,100863.97
2017-10-20T19:32:25.273Z,100859.71
2017-10-20T19:34:52.866Z,100869.78
2017-10-20T19:37:20.409Z,100869.55
2017-10-20T19:39:47.939Z,100867.67
2017-10-20T19:42:16.413Z,100859.98
2017-10-20T19:44:44.017Z,100854.45
2017-10-20T19:47:11.582Z,100844.43
2017-10-20T19:49:51.874Z,100851.50
2017-10-20T19:52:20.544Z,100872.52
2017-10-20T19:54:48.156Z,100870.20
2017-10-20T19:57:15.741Z,100861.14
2017-10-20T19:59:44.173Z,100848.96
2017-10-20T20:02:12.516Z,100842.92
2017-10-20T20:04:40.273Z,100839.02
2017-10-20T20:07:08.488Z,100844.20
2017-10-20T20:09:37.087Z,100844.72
2017-10-20T20:12:05.216Z,100859.81
2017-10-20T20:14:33.921Z,100856.12
2017-10-20T20:17:01.566Z,100864.88
2017-10-20T20:19:30.244Z,100875.30
2017-10-20T20:21:58.824Z,100882.13
2017-10-20T20:24:27.409Z,100888.40
2017-10-20T20:26:55.041Z,100888.40
2017-10-20T20:29:23.862Z,100876.53
2017-10-20T20:32:07.072Z,100890.63
2017-10-20T20:34:34.656Z,100892.29
2017-10-20T20:37:03.027Z,100884.54
2017-10-20T20:39:30.886Z,100886.66
2017-10-20T20:41:58.444Z,100882.41
2017-10-20T20:44:25.984Z,100874.95
2017-10-20T20:46:54.812Z,100887.55
2017-10-20T20:49:24.015Z,100897.94
2017-10-20T20:51:52.068Z,100894.94
2017-10-20T20:54:19.848Z,100901.66
2017-10-20T20:56:47.542Z,100915.27
2017-10-20T20:59:15.076Z,100914.59
2017-10-20T21:01:42.685Z,100914.59
2017-10-20T21:04:10.958Z,100912.66
2017-10-20T21:06:38.502Z,100915.58
2017-10-20T21:09:06.129Z,100925.93
2017-10-20T21:11:33.677Z,100925.52
2017-10-20T21:14:02.574Z,100922.45
2017-10-20T21:16:30.342Z,100922.73
2017-10-20T21:18:58.746Z,100925.15
2017-10-20T21:21:26.584Z,100927.73
2017-10-20T21:23:55.384Z,100933.50
2017-10-20T21:26:24.882Z,100935.66
2017-10-20T21:28:52.872Z,100941.84
2017-10-20T21:31:21.212Z,100941.48
2017-10-20T21:33:48.744Z,100942.38
2017-10-20T21:36:16.285Z,100939.32
2017-10-20T21:38:45.860Z,100939.17
2017-10-20T21:41:13.437Z,100935.91
2017-10-20T21:43:42.957Z,100940.58
2017-10-20T21:46:11.201Z,100935.50
2017-10-20T21:48:42.641Z,100938.75
2017-10-20T21:51:14.152Z,100939.77
2017-10-20T21:53:45.413Z,100947.23
2017-10-20T21:56:17.107Z,100940.96
2017-10-20T21:58:45.004Z,100942.33
2017-10-20T22:01:16.080Z,100943.83
2017-10-20T22:06:19.255Z,100949.19
2017-10-20T22:08:47.925Z,100948.63
2017-10-20T22:11:15.843Z,100950.23
2017-10-20T22:13:43.622Z,100945.48
2017-10-20T22:16:11.432Z,100952.69
2017-10-20T22:18:39.154Z,100945.54
2017-10-20T22:21:09.271Z,100954.47
2017-10-20T22:23:37.386Z,100948.75
2017-10-20T22:26:05.253Z,100954.66
2017-10-20T22:28:33.635Z,100951.84
2017-10-20T22:31:01.953Z,100953.45
2017-10-20T22:33:29.868Z,100957.94
2017-10-20T22:35:57.744Z,100961.23
2017-10-20T22:38:25.511Z,100955.33
2017-10-20T22:40:53.254Z,100951.16
2017-10-20T22:43:21.362Z,100957.90
2017-10-20T22:45:49.377Z,100954.19
2017-10-20T22:48:17.183Z,100958.13
2017-10-20T22:50:45.263Z,100953.95
2017-10-20T22:53:13.119Z,100955.98
2017-10-20T22:55:40.797Z,100961.59
2017-10-20T22:58:08.371Z,100973.05
2017-10-20T23:00:36.011Z,100971.90
2017-10-20T23:03:07.702Z,100975.56
2017-10-20T23:05:36.144Z,100974.90
2017-10-20T23:08:03.747Z,100978.53
2017-10-20T23:10:31.328Z,100976.37
2017-10-20T23:12:58.932Z,100978.77
2017-10-20T23:15:27.284Z,100981.69
2017-10-20T23:17:54.829Z,100977.44
2017-10-20T23:20:22.376Z,100983.53
2017-10-20T23:22:50.830Z,100987.88
2017-10-20T23:25:18.475Z,100988.28
2017-10-20T23:27:46.017Z,100992.78
2017-10-20T23:30:13.596Z,100992.27
2017-10-20T23:32:41.140Z,100995.38
2017-10-20T23:35:09.440Z,101001.08
2017-10-20T23:37:38.017Z,100999.42
2017-10-20T23:40:06.357Z,100996.28
2017-10-20T23:42:34.781Z,100993.91
2017-10-20T23:45:02.321Z,100992.10
2017-10-20T23:47:30.004Z,100988.86
2017-10-20T23:49:58.224Z,100993.86
2017-10-20T23:52:25.808Z,100994.58
2017-10-20T23:54:54.286Z,100989.98
2017-10-20T23:57:21.829Z,100994.89
2017-10-20T23:59:50.361Z,100995.91
